Time;durP1;ratioP1;P1;durP2;ratioP2;P2;SDS_P1;SDS_P2;PMS_P1;PMS_P2;Temp;Humidity;BMP_temperature;BMP_pressure;BME280_temperature;BME280_humidity;BME280_pressure;Samples;Min_cycle;Max_cycle;Signal;HPM_P1;HPM_P2
2020/12/14 00:05:05;;;;;;;;;;;;;;;;;;;;;
2020/12/14 00:08:00;;;;;;;14.85;4.13;;;20.00;81.30;;;;;;6129561;23;20018;-81
2020/12/14 00:14:48;;;;;;;11.98;4.13;;;20.00;81.40;;;;;;6036059;23;20042;-80
2020/12/14 00:18:08;;;;;;;18.65;5.20;;;20.00;81.00;;;;;;6033151;23;20029;-81
2020/12/14 00:21:26;;;;;;;14.38;5.07;;;20.00;80.50;;;;;;6001897;23;20030;-82
2020/12/14 00:24:40;;;;;;;16.65;5.25;;;19.90;80.10;;;;;;5997731;23;20023;-81
2020/12/14 00:28:25;;;;;;;12.25;3.75;;;19.90;79.70;;;;;;6156598;23;20039;-82
2020/12/14 00:31:53;;;;;;;12.07;4.13;;;19.80;80.20;;;;;;6129245;23;20020;-81
2020/12/14 00:34:56;;;;;;;14.05;4.07;;;19.70;80.70;;;;;;6178685;23;20031;-80
2020/12/14 00:37:54;;;;;;;12.38;3.97;;;19.70;80.30;;;;;;6172391;23;20041;-81
2020/12/14 00:41:24;;;;;;;14.68;3.97;;;19.70;80.30;;;;;;6144020;23;20011;-80
2020/12/14 00:44:08;;;;;;;11.15;3.58;;;19.70;79.70;;;;;;6174845;22;20028;-81
2020/12/14 00:50:42;;;;;;;13.90;4.13;;;19.60;79.30;;;;;;6186048;23;20021;-81
2020/12/14 00:57:18;;;;;;;14.95;4.43;;;19.50;79.70;;;;;;6172374;23;20021;-80
2020/12/14 00:59:59;;;;;;;;;;;;;;;;;;;;;
2020/12/14 01:02:58;;;;;;;12.80;4.28;;;19.50;79.40;;;;;;6192160;23;20362;-81
2020/12/14 01:06:18;;;;;;;12.65;4.25;;;19.50;80.10;;;;;;6235393;22;20430;-82
2020/12/14 01:09:48;;;;;;;12.88;4.13;;;19.40;80.20;;;;;;6250538;22;20016;-81
2020/12/14 01:12:44;;;;;;;11.87;3.80;;;19.40;80.40;;;;;;6176937;22;20458;-82
2020/12/14 01:15:34;;;;;;;15.57;4.40;;;19.40;80.40;;;;;;6250317;22;20030;-81
2020/12/14 01:18:49;;;;;;;16.35;4.40;;;19.40;80.50;;;;;;6281788;22;20045;-80
2020/12/14 01:22:06;;;;;;;12.13;4.93;;;19.30;80.50;;;;;;6241612;22;20620;-83
2020/12/14 01:25:47;;;;;;;;;;;;;;;;;;;;;
2020/12/14 01:38:13;;;;;;;14.15;4.10;;;19.40;78.70;;;;;;6162149;23;20017;-79
2020/12/14 01:42:10;;;;;;;14.30;4.70;;;19.60;78.30;;;;;;6128889;23;20005;-82
2020/12/14 01:53:59;;;;;;;16.92;4.65;;;19.60;77.70;;;;;;6045175;23;20034;-81
2020/12/14 01:57:33;;;;;;;12.40;4.05;;;19.60;78.10;;;;;;6030297;23;20030;-81
2020/12/14 02:01:13;;;;;;;;;;;;;;;;;;;;;
2020/12/14 02:08:08;;;;;;;11.50;3.70;;;19.40;77.50;;;;;;5986988;24;20043;-81
2020/12/14 02:11:39;;;;;;;13.68;4.22;;;19.40;77.70;;;;;;5981536;24;20012;-83
2020/12/14 02:24:35;;;;;;;;;;;;;;;;;;;;;
2020/12/14 02:27:07;;;;;;;12.30;3.83;;;19.10;77.50;;;;;;5923491;24;20028;-82
2020/12/14 02:29:56;;;;;;;17.58;4.63;;;19.10;77.30;;;;;;5895062;24;20012;-83
2020/12/14 02:32:43;;;;;;;12.10;4.13;;;19.10;77.10;;;;;;6056599;23;20026;-80
2020/12/14 02:36:08;;;;;;;13.25;4.35;;;19.10;77.30;;;;;;6077097;23;20014;-82
2020/12/14 02:42:30;;;;;;;10.70;4.18;;;19.00;77.80;;;;;;6090529;23;20018;-78
2020/12/14 02:45:37;;;;;;;14.93;4.43;;;19.00;77.90;;;;;;6068490;23;20217;-82
2020/12/14 02:49:19;;;;;;;14.07;5.10;;;18.90;77.50;;;;;;6087457;23;20114;-80
2020/12/14 02:52:17;;;;;;;11.38;4.28;;;18.90;77.60;;;;;;6085625;23;20025;-80
2020/12/14 02:55:11;;;;;;;13.85;4.97;;;18.90;77.60;;;;;;6191719;23;20349;-81
2020/12/14 02:58:37;;;;;;;13.75;3.92;;;18.80;77.50;;;;;;6220642;23;20024;-82
2020/12/14 03:11:28;;;;;;;11.27;4.15;;;18.90;76.80;;;;;;6303768;22;20487;-81
2020/12/14 03:14:18;;;;;;;12.55;4.25;;;19.00;77.00;;;;;;6336486;22;20033;-80
2020/12/14 03:17:58;;;;;;;11.60;4.20;;;19.00;77.30;;;;;;6336395;22;20028;-77
2020/12/14 03:20:43;;;;;;;12.57;4.40;;;19.00;76.60;;;;;;6222974;22;20129;-82
2020/12/14 03:23:33;;;;;;;13.75;4.30;;;19.00;76.60;;;;;;6221006;22;20020;-82
2020/12/14 03:31:07;;;;;;;12.60;4.32;;;19.00;76.30;;;;;;6159580;23;20028;-80
2020/12/14 03:35:01;;;;;;;14.23;4.50;;;19.00;75.70;;;;;;6211691;22;20022;-80
2020/12/14 03:38:12;;;;;;;15.60;5.72;;;18.90;75.70;;;;;;6214436;23;20024;-80
2020/12/14 03:45:00;;;;;;;10.80;4.03;;;18.80;76.00;;;;;;6236453;23;20034;-81
2020/12/14 03:47:57;;;;;;;14.45;4.38;;;18.70;76.00;;;;;;6220842;23;20028;-83
2020/12/14 03:51:33;;;;;;;14.20;4.30;;;18.70;76.50;;;;;;6245522;23;20028;-80
2020/12/14 03:54:59;;;;;;;21.73;4.90;;;18.70;77.00;;;;;;6129741;23;20472;-83
2020/12/14 03:58:02;;;;;;;11.65;4.15;;;18.60;76.60;;;;;;6063312;23;20128;-79
2020/12/14 04:00:53;;;;;;;15.27;4.47;;;18.60;76.20;;;;;;6145498;23;20030;-80
2020/12/14 04:03:58;;;;;;;12.23;4.20;;;18.60;76.50;;;;;;6160839;23;20024;-81
2020/12/14 04:11:35;;;;;;;13.43;4.00;;;18.70;75.80;;;;;;6092635;23;20033;-80
2020/12/14 04:15:03;;;;;;;12.13;3.95;;;18.70;75.90;;;;;;5967301;24;20035;-81
2020/12/14 04:19:23;;;;;;;;;;;;;;;;;;;;;
2020/12/14 04:27:05;;;;;;;12.90;4.03;;;18.70;76.40;;;;;;5876749;24;20029;-82
2020/12/14 04:42:54;;;;;;;;;;;;;;;;;;;;;
2020/12/14 04:45:57;;;;;;;8.70;3.22;;;18.80;76.10;;;;;;5854189;24;20021;-82
2020/12/14 04:57:47;;;;;;;;;;;;;;;;;;;;;
2020/12/14 05:06:29;;;;;;;;;;;;;;;;;;;;;
2020/12/14 05:22:23;;;;;;;;;;;;;;;;;;;;;
2020/12/14 05:43:36;;;;;;;12.05;3.85;;;20.40;70.80;;;;;;5983161;23;20074;-81
2020/12/14 05:47:46;;;;;;;9.85;3.40;;;20.60;71.00;;;;;;5930841;24;20031;-79
2020/12/14 05:55:00;;;;;;;;;;;;;;;;;;;;;
2020/12/14 06:02:45;;;;;;;;;;;;;;;;;;;;;
2020/12/14 06:10:11;;;;;;;12.88;3.50;;;21.50;70.00;;;;;;6364506;22;20007;-80
2020/12/14 06:13:51;;;;;;;11.07;3.78;;;21.50;70.70;;;;;;6326871;22;20018;-78
2020/12/14 06:16:55;;;;;;;12.20;3.50;;;21.30;70.50;;;;;;6199368;23;20024;-77
2020/12/14 06:23:44;;;;;;;11.80;3.47;;;21.10;73.70;;;;;;6134717;23;20072;-77
2020/12/14 06:26:49;;;;;;;15.73;3.15;;;21.30;75.10;;;;;;6142227;23;20207;-78
2020/12/14 06:29:53;;;;;;;;;;;21.50;75.40;;;;;;6113339;23;20026;-79
2020/12/14 06:32:39;;;;;;;15.93;3.83;;;21.80;77.60;;;;;;6127754;23;20320;-77
2020/12/14 06:36:29;;;;;;;17.92;4.05;;;22.10;77.80;;;;;;6108193;23;20032;-79
2020/12/14 06:39:23;;;;;;;16.63;4.13;;;22.10;79.10;;;;;;6107060;23;20036;-81
2020/12/14 06:43:04;;;;;;;13.27;3.28;;;22.00;75.80;;;;;;6131265;23;20010;-79
2020/12/14 06:51:17;;;;;;;21.90;4.70;;;22.50;74.10;;;;;;6294213;22;20352;-78
2020/12/14 06:54:54;;;;;;;13.80;3.92;;;22.70;70.80;;;;;;6335541;22;20029;-79
2020/12/14 06:58:35;;;;;;;13.35;4.38;;;22.70;62.80;;;;;;6258649;22;20012;-78
2020/12/14 07:01:55;;;;;;;13.88;4.57;;;22.80;59.70;;;;;;6290307;22;20020;-79
2020/12/14 07:05:54;;;;;;;15.93;4.57;;;22.80;57.70;;;;;;6249354;22;20024;-78
2020/12/14 07:13:44;;;;;;;11.27;3.97;;;22.40;56.10;;;;;;6135637;23;20383;-80
2020/12/14 07:17:21;;;;;;;11.35;4.07;;;22.00;56.70;;;;;;6079339;23;20032;-79
2020/12/14 07:20:35;;;;;;;12.60;4.60;;;21.80;56.70;;;;;;6105003;23;20025;-80
2020/12/14 07:23:45;;;;;;;18.17;4.65;;;21.70;56.50;;;;;;6100027;23;20018;-79
2020/12/14 07:26:56;;;;;;;14.20;4.72;;;21.50;56.60;;;;;;6139607;23;20021;-79
2020/12/14 07:29:58;;;;;;;15.13;4.18;;;21.40;56.60;;;;;;6129332;23;20018;-80
2020/12/14 07:33:18;;;;;;;14.90;4.50;;;21.30;56.70;;;;;;6129817;23;20021;-80
2020/12/14 07:36:34;;;;;;;;;;;;;;;;;;;;;
2020/12/14 07:53:30;;;;;;;;;;;;;;;;;;;;;
2020/12/14 07:57:06;;;;;;;12.50;3.65;;;21.50;62.20;;;;;;6310872;22;20017;-76
2020/12/14 07:59:33;;;;;;;12.77;3.50;;;22.10;62.10;;;;;;6294166;22;20023;-78
2020/12/14 08:02:14;;;;;;;10.57;3.40;;;22.20;61.90;;;;;;6282163;22;20038;-78
2020/12/14 08:04:52;;;;;;;9.75;2.97;;;22.50;62.10;;;;;;6281556;22;20023;-79
2020/12/14 08:07:21;;;;;;;11.88;3.10;;;22.60;62.10;;;;;;6280244;22;20023;-77
2020/12/14 08:14:12;;;;;;;8.18;2.67;;;22.70;62.70;;;;;;6207444;22;20008;-78
2020/12/14 08:17:25;;;;;;;9.77;3.00;;;22.90;62.90;;;;;;6325219;22;20019;-78
2020/12/14 08:20:08;;;;;;;11.07;3.03;;;23.00;63.10;;;;;;6299370;22;20026;-78
2020/12/14 08:26:35;;;;;;;12.43;2.60;;;22.90;63.90;;;;;;6350164;22;20015;-77
2020/12/14 08:29:13;;;;;;;7.15;3.08;;;22.80;64.30;;;;;;6208232;23;20529;-77
2020/12/14 08:31:58;;;;;;;7.80;2.72;;;22.80;64.60;;;;;;6247970;23;20093;-77
2020/12/14 08:34:37;;;;;;;11.38;2.80;;;22.90;64.70;;;;;;6239870;22;20072;-76
2020/12/14 08:37:12;;;;;;;7.40;2.40;;;22.90;64.90;;;;;;6239368;22;20014;-77
2020/12/14 08:39:41;;;;;;;8.60;2.80;;;22.90;65.10;;;;;;6237466;22;20004;-77
2020/12/14 08:43:13;;;;;;;7.43;2.67;;;22.70;65.60;;;;;;6230459;23;20023;-76
2020/12/14 08:46:11;;;;;;;;;;;22.60;66.20;;;;;;6206311;23;20686;-78
2020/12/14 08:49:35;;;;;;;;;;;;;;;;;;;;;
2020/12/14 08:56:31;;;;;;;9.55;2.75;;;22.30;67.90;;;;;;6187489;23;20059;-77
2020/12/14 09:11:19;;;;;;;11.80;2.88;;;22.50;68.50;;;;;;6150778;23;20025;-77
2020/12/14 09:14:48;;;;;;;5.57;2.20;;;22.50;68.60;;;;;;6007416;23;20023;-77
2020/12/14 09:22:33;;;;;;;7.07;2.30;;;22.60;68.90;;;;;;6126473;23;20014;-77
2020/12/14 09:25:00;;;;;;;7.75;2.45;;;22.80;68.70;;;;;;6123044;23;20026;-77
2020/12/14 09:28:09;;;;;;;;;;;22.80;68.70;;;;;;6099169;23;20029;-78
2020/12/14 09:31:27;;;;;;;11.70;2.42;;;22.80;68.60;;;;;;6033518;23;19921;-77
2020/12/14 09:34:06;;;;;;;8.65;2.50;;;23.00;68.60;;;;;;6124545;23;20065;-78
2020/12/14 09:37:32;;;;;;;7.13;2.38;;;23.00;69.10;;;;;;6121797;23;20026;-78
2020/12/14 09:41:10;;;;;;;6.25;2.08;;;22.90;69.10;;;;;;6123395;23;20022;-77
2020/12/14 09:44:54;;;;;;;5.22;2.30;;;22.90;69.20;;;;;;6200786;22;20018;-77
2020/12/14 09:47:48;;;;;;;5.80;2.30;;;22.80;69.40;;;;;;6273362;22;20045;-77
2020/12/14 09:54:00;;;;;;;4.88;2.20;;;22.60;70.00;;;;;;6242648;22;20060;-77
2020/12/14 09:56:42;;;;;;;6.10;2.30;;;22.60;70.40;;;;;;6294648;22;20018;-77
2020/12/14 10:03:23;;;;;;;5.65;2.28;;;22.40;70.90;;;;;;6216893;23;20024;-77
2020/12/14 10:06:18;;;;;;;6.28;1.95;;;22.40;71.00;;;;;;6216784;23;20027;-79
2020/12/14 10:13:27;;;;;;;6.25;2.25;;;22.30;71.60;;;;;;6148956;23;20033;-77
2020/12/14 10:16:05;;;;;;;5.05;2.55;;;22.40;71.70;;;;;;6180007;23;20020;-76
2020/12/14 10:18:54;;;;;;;8.35;2.80;;;22.30;71.80;;;;;;6177926;23;20020;-76
2020/12/14 10:21:55;;;;;;;6.38;2.03;;;22.30;72.20;;;;;;6203553;23;20021;-77
2020/12/14 10:25:20;;;;;;;4.75;1.90;;;22.40;72.00;;;;;;6200815;23;20032;-76
2020/12/14 10:29:06;;;;;;;6.85;2.25;;;22.40;71.90;;;;;;6186919;23;20028;-77
2020/12/14 10:32:11;;;;;;;8.43;2.70;;;22.40;72.10;;;;;;6098679;23;20414;-77
2020/12/14 10:34:42;;;;;;;11.48;2.70;;;22.30;72.20;;;;;;6084472;23;20523;-77
2020/12/14 10:37:38;;;;;;;8.27;2.53;;;22.40;72.10;;;;;;6089933;23;20018;-78
2020/12/14 10:40:17;;;;;;;3.13;1.95;;;22.40;72.10;;;;;;6087015;23;20041;-78
2020/12/14 10:42:47;;;;;;;6.20;2.53;;;22.40;72.00;;;;;;6104581;23;20037;-77
2020/12/14 10:45:33;;;;;;;10.30;2.25;;;22.40;72.20;;;;;;6107255;23;20029;-79
2020/12/14 10:48:00;;;;;;;5.97;2.40;;;22.40;72.40;;;;;;6111362;23;20028;-77
2020/12/14 10:50:51;;;;;;;6.70;2.25;;;22.40;72.50;;;;;;6135679;23;20389;-78
2020/12/14 10:53:24;;;;;;;7.50;2.17;;;22.50;73.00;;;;;;6156619;23;20018;-78
2020/12/14 10:55:52;;;;;;;10.13;2.42;;;22.50;72.50;;;;;;6151009;23;20021;-77
2020/12/14 10:58:19;;;;;;;6.50;2.17;;;22.60;72.40;;;;;;6153371;23;20025;-79
2020/12/14 11:00:46;;;;;;;5.00;2.22;;;22.70;72.40;;;;;;6148428;23;20619;-78
2020/12/14 11:03:14;;;;;;;9.77;2.38;;;22.70;72.40;;;;;;6123258;23;20029;-79
2020/12/14 11:05:44;;;;;;;6.13;2.40;;;22.70;72.20;;;;;;6124405;23;20025;-78
2020/12/14 11:08:16;;;;;;;9.18;2.40;;;22.80;72.20;;;;;;6165457;22;20019;-77
2020/12/14 11:10:43;;;;;;;4.82;2.05;;;22.80;72.30;;;;;;6244464;22;20035;-77
2020/12/14 11:13:12;;;;;;;6.82;2.08;;;22.80;72.30;;;;;;6240931;22;20481;-77
2020/12/14 11:15:39;;;;;;;5.55;2.00;;;22.80;72.30;;;;;;6243586;22;20012;-77
2020/12/14 11:18:07;;;;;;;3.28;1.95;;;22.90;72.20;;;;;;6216650;22;20031;-78
2020/12/14 11:20:38;;;;;;;6.53;2.22;;;22.90;72.10;;;;;;6217559;22;20031;-78
2020/12/14 11:23:05;;;;;;;6.75;2.28;;;23.00;72.10;;;;;;6213589;22;20023;-77
2020/12/14 11:25:33;;;;;;;7.93;1.98;;;22.90;72.20;;;;;;6249697;22;20023;-77
2020/12/14 11:28:02;;;;;;;6.30;2.13;;;22.90;72.50;;;;;;6302162;22;20011;-78
2020/12/14 11:30:29;;;;;;;;;;;22.80;72.70;;;;;;6256559;22;20022;-76
2020/12/14 11:32:57;;;;;;;6.18;2.08;;;22.80;73.40;;;;;;6283907;22;19934;-76
2020/12/14 11:35:24;;;;;;;6.88;1.95;;;22.80;72.90;;;;;;6312779;22;20011;-77
2020/12/14 11:37:53;;;;;;;11.40;2.35;;;22.80;73.40;;;;;;6305057;22;20019;-78
2020/12/14 11:40:24;;;;;;;18.50;2.30;;;22.80;73.80;;;;;;6274139;22;20048;-76
2020/12/14 11:47:38;;;;;;;8.05;2.33;;;22.70;74.80;;;;;;6290725;22;20265;-78
2020/12/14 11:50:50;;;;;;;;;;;;;;;;;;;;;
2020/12/14 11:54:52;;;;;;;13.65;2.95;;;22.70;76.40;;;;;;6252385;22;20024;-79
2020/12/14 11:58:23;;;;;;;8.40;2.58;;;22.70;77.30;;;;;;6159617;23;20036;-78
2020/12/14 12:02:38;;;;;;;;;;;;;;;;;;;;;
2020/12/14 12:06:15;;;;;;;11.93;1.98;;;22.70;78.30;;;;;;6057698;23;20030;-79
2020/12/14 12:16:29;;;;;;;9.23;2.63;;;22.70;79.50;;;;;;6023523;23;20011;-80
2020/12/14 12:20:50;;;;;;;23.75;3.60;;;22.70;79.20;;;;;;5994545;23;20426;-78
2020/12/14 12:31:59;;;;;;;;;;;;;;;;;;;;;
2020/12/14 12:35:55;;;;;;;13.93;3.95;;;23.50;77.20;;;;;;6082623;23;20151;-79
2020/12/14 12:38:58;;;;;;;9.25;2.88;;;23.60;76.90;;;;;;6120339;23;20208;-78
2020/12/14 12:41:28;;;;;;;14.07;3.85;;;23.50;77.40;;;;;;6097296;23;20100;-79
2020/12/14 12:44:06;;;;;;;13.45;3.20;;;23.50;77.40;;;;;;6102935;23;20022;-78
2020/12/14 12:46:46;;;;;;;15.52;3.58;;;23.60;82.50;;;;;;6213586;22;20019;-78
2020/12/14 12:50:07;;;;;;;16.60;4.13;;;23.60;85.90;;;;;;6296318;22;20030;-79
2020/12/14 13:00:41;;;;;;;15.98;4.68;;;22.30;94.20;;;;;;6224073;23;20080;-77
2020/12/14 13:19:37;;;;;;;11.98;3.00;;;23.00;84.30;;;;;;6318302;22;20023;-77
2020/12/14 13:22:51;;;;;;;14.88;3.67;;;23.10;79.70;;;;;;6315510;22;20404;-77
2020/12/14 13:30:16;;;;;;;17.60;2.90;;;23.10;78.30;;;;;;6181325;23;20322;-78
2020/12/14 13:36:15;;;;;;;9.88;2.55;;;22.90;81.80;;;;;;6045821;23;20015;-79
2020/12/14 13:39:03;;;;;;;10.20;3.70;;;22.90;82.80;;;;;;6143098;23;20073;-78
2020/12/14 13:41:59;;;;;;;12.02;2.90;;;22.90;82.80;;;;;;6183658;23;20483;-76
2020/12/14 13:44:29;;;;;;;10.90;2.50;;;22.90;83.00;;;;;;6171020;23;20020;-76
2020/12/14 13:47:16;;;;;;;7.75;2.95;;;22.90;82.80;;;;;;6177611;23;20025;-77
2020/12/14 13:50:23;;;;;;;7.03;2.17;;;22.90;82.80;;;;;;6176693;23;20028;-77
2020/12/14 13:52:58;;;;;;;15.23;3.00;;;22.90;82.60;;;;;;6191194;23;20017;-77
2020/12/14 13:56:12;;;;;;;10.48;2.65;;;22.90;82.60;;;;;;6175800;23;20040;-78
2020/12/14 13:58:40;;;;;;;8.57;2.40;;;22.90;82.40;;;;;;6132722;23;20025;-78
2020/12/14 14:01:13;;;;;;;9.43;2.53;;;22.90;82.30;;;;;;6178725;23;20040;-76
2020/12/14 14:03:40;;;;;;;11.50;3.28;;;23.00;82.30;;;;;;6176761;23;20025;-76
2020/12/14 14:06:08;;;;;;;9.90;2.57;;;23.00;82.10;;;;;;6173055;23;20048;-76
2020/12/14 14:08:36;;;;;;;9.43;2.83;;;23.00;81.90;;;;;;6175240;22;20025;-76
2020/12/14 14:11:03;;;;;;;16.35;3.20;;;23.00;81.90;;;;;;6297410;22;20019;-76
2020/12/14 14:13:31;;;;;;;8.60;2.70;;;22.90;82.10;;;;;;6271305;22;20020;-78
2020/12/14 14:16:02;;;;;;;10.98;2.38;;;23.00;82.00;;;;;;6298781;22;20022;-77
2020/12/14 14:18:31;;;;;;;9.35;3.15;;;23.00;81.70;;;;;;6279186;22;20468;-77
2020/12/14 14:20:59;;;;;;;14.27;2.67;;;23.00;81.70;;;;;;6290518;22;20019;-77
2020/12/14 14:23:26;;;;;;;13.13;2.67;;;23.00;81.70;;;;;;6285210;22;20019;-76
2020/12/14 23:47:24;;;;;;;7.38;2.83;;;20.80;85.70;;;;;;6308918;22;20029;-76
2020/12/14 23:50:12;;;;;;;9.90;2.85;;;20.80;85.70;;;;;;6314945;22;20011;-77
2020/12/14 23:52:50;;;;;;;10.07;3.22;;;20.80;85.70;;;;;;6274191;22;20019;-78
2020/12/14 23:55:26;;;;;;;9.05;3.20;;;20.80;85.70;;;;;;6308536;22;20015;-78
2020/12/14 23:58:16;;;;;;;8.45;2.88;;;20.80;85.60;;;;;;6344684;22;20326;-78
